Time;durP1;ratioP1;P1;durP2;ratioP2;P2;SDS_P1;SDS_P2;PMS_P1;PMS_P2;Temp;Humidity;BMP_temperature;BMP_pressure;BME280_temperature;BME280_humidity;BME280_pressure;Samples;Min_cycle;Max_cycle;Signal;HPM_P1;HPM_P2
2022/06/19 00:01:57;;;;;;;;;;;;;;;;;;5016822;28;19929;-26
2022/06/19 00:04:23;;;;;;;;;;;;;;;;;;5016900;28;20004;-26
2022/06/19 00:06:49;;;;;;;;;;;;;;;;;;5016529;28;19967;-26
2022/06/19 00:09:15;;;;;;;;;;;;;;;;;;5017083;28;19918;-26
2022/06/19 00:11:41;;;;;;;;;;;;;;;;;;5016774;28;19914;-26
2022/06/19 00:14:07;;;;;;;;;;;;;;;;;;5016969;28;20457;-26
2022/06/19 00:16:33;;;;;;;;;;;;;;;;;;5016939;28;20272;-26
2022/06/19 00:18:59;;;;;;;;;;;;;;;;;;5016667;28;19913;-26
2022/06/19 00:21:25;;;;;;;;;;;;;;;;;;5016625;28;19924;-26
2022/06/19 00:23:51;;;;;;;;;;;;;;;;;;5016442;28;19914;-26
2022/06/19 00:26:17;;;;;;;;;;;;;;;;;;5016990;28;19914;-26
2022/06/19 00:28:46;;;;;;;;;;;;;;;;;;5015519;28;19925;-26
2022/06/19 00:31:12;;;;;;;;;;;;;;;;;;5016377;28;20001;-26
2022/06/19 00:33:38;;;;;;;;;;;;;;;;;;5016771;28;19953;-25
2022/06/19 00:36:04;;;;;;;;;;;;;;;;;;5016200;28;19917;-26
2022/06/19 00:38:29;;;;;;;;;;;;;;;;;;5016546;28;19940;-26
2022/06/19 00:40:56;;;;;;;;;;;;;;;;;;5016236;28;19973;-26
2022/06/19 00:43:22;;;;;;;;;;;;;;;;;;5016069;28;19923;-26
2022/06/19 00:45:51;;;;;;;;;;;;;;;;;;5016888;28;19913;-26
2022/06/19 00:48:17;;;;;;;;;;;;;;;;;;5016365;28;19913;-26
2022/06/19 00:50:43;;;;;;;;;;;;;;;;;;5016113;28;20253;-26
2022/06/19 00:53:09;;;;;;;;;;;;;;;;;;5016216;28;19996;-26
2022/06/19 00:55:36;;;;;;;;;;;;;;;;;;5016534;28;20000;-26
2022/06/19 00:58:02;;;;;;;;;;;;;;;;;;5015901;28;19917;-26
2022/06/19 01:00:28;;;;;;;;;;;;;;;;;;5015945;28;19967;-26
2022/06/19 01:02:54;;;;;;;;;;;;;;;;;;5016107;28;19922;-26
2022/06/19 01:05:20;;;;;;;;;;;;;;;;;;5015734;28;19991;-26
2022/06/19 01:07:46;;;;;;;;;;;;;;;;;;5016056;28;19909;-26
2022/06/19 01:10:15;;;;;;;;;;;;;;;;;;5016055;28;19971;-26
2022/06/19 01:12:41;;;;;;;;;;;;;;;;;;5015929;28;20407;-26
2022/06/19 01:15:07;;;;;;;;;;;;;;;;;;5015731;28;19956;-27
2022/06/19 01:17:33;;;;;;;;;;;;;;;;;;5015916;28;19920;-26
2022/06/19 01:19:59;;;;;;;;;;;;;;;;;;5016178;28;20368;-26
2022/06/19 01:22:25;;;;;;;;;;;;;;;;;;5015462;28;19914;-26
2022/06/19 01:24:51;;;;;;;;;;;;;;;;;;5015861;28;20060;-27
2022/06/19 01:30:01;;;;;;;;;;;;;;;;;;5015893;28;19916;-26
2022/06/19 01:32:27;;;;;;;;;;;;;;;;;;5015947;28;19913;-26
2022/06/19 01:34:53;;;;;;;;;;;;;;;;;;5015731;28;19924;-26
2022/06/19 01:37:20;;;;;;;;;;;;;;;;;;5014419;28;19913;-26
2022/06/19 01:39:46;;;;;;;;;;;;;;;;;;5015329;28;20013;-26
2022/06/19 01:42:12;;;;;;;;;;;;;;;;;;5015255;28;19945;-26
2022/06/19 01:44:38;;;;;;;;;;;;;;;;;;5015333;28;19920;-26
2022/06/19 01:47:04;;;;;;;;;;;;;;;;;;5014883;28;19925;-26
2022/06/19 01:49:30;;;;;;;;;;;;;;;;;;5015517;28;19909;-26
2022/06/19 01:51:56;;;;;;;;;;;;;;;;;;5015685;28;19920;-26
2022/06/19 01:54:22;;;;;;;;;;;;;;;;;;5014203;28;20280;-26
2022/06/19 01:56:48;;;;;;;;;;;;;;;;;;5015216;28;19924;-26
2022/06/19 01:59:14;;;;;;;;;;;;;;;;;;5015159;28;19967;-26
2022/06/19 02:01:40;;;;;;;;;;;;;;;;;;5015173;28;19967;-26
2022/06/19 02:04:06;;;;;;;;;;;;;;;;;;5014984;28;19913;-26
2022/06/19 02:06:32;;;;;;;;;;;;;;;;;;5014828;28;19925;-26
2022/06/19 02:08:58;;;;;;;;;;;;;;;;;;5015080;28;19944;-26
2022/06/19 02:11:24;;;;;;;;;;;;;;;;;;5015041;28;20032;-25
2022/06/19 02:13:50;;;;;;;;;;;;;;;;;;5014938;28;19909;-25
2022/06/19 02:16:16;;;;;;;;;;;;;;;;;;5014990;28;20234;-25
2022/06/19 02:18:42;;;;;;;;;;;;;;;;;;5014954;28;19920;-25
2022/06/19 02:21:08;;;;;;;;;;;;;;;;;;5014966;28;19964;-25
2022/06/19 02:23:34;;;;;;;;;;;;;;;;;;5015141;28;19920;-25
2022/06/19 02:26:00;;;;;;;;;;;;;;;;;;5014816;28;20408;-25
2022/06/19 02:28:26;;;;;;;;;;;;;;;;;;5015641;28;19910;-25
2022/06/19 02:30:52;;;;;;;;;;;;;;;;;;5014877;28;19917;-25
2022/06/19 02:33:18;;;;;;;;;;;;;;;;;;5014749;28;19920;-25
2022/06/19 02:35:44;;;;;;;;;;;;;;;;;;5015130;28;19917;-25
2022/06/19 02:38:10;;;;;;;;;;;;;;;;;;5015070;28;20327;-25
2022/06/19 02:40:36;;;;;;;;;;;;;;;;;;5015032;28;20004;-26
2022/06/19 02:43:01;;;;;;;;;;;;;;;;;;5014981;28;19925;-26
2022/06/19 02:45:27;;;;;;;;;;;;;;;;;;5014921;28;20337;-26
2022/06/19 02:47:53;;;;;;;;;;;;;;;;;;5014719;28;19941;-26
2022/06/19 02:50:19;;;;;;;;;;;;;;;;;;5015291;28;19945;-26
2022/06/19 02:52:45;;;;;;;;;;;;;;;;;;5014584;28;20004;-26
2022/06/19 02:55:11;;;;;;;;;;;;;;;;;;5014574;28;19947;-26
2022/06/19 02:57:37;;;;;;;;;;;;;;;;;;5014679;28;20005;-26
2022/06/19 03:00:03;;;;;;;;;;;;;;;;;;5017249;28;19913;-26
2022/06/19 03:02:31;;;;;;;;;;;;;;;;;;5018641;28;19914;-26
2022/06/19 03:04:57;;;;;;;;;;;;;;;;;;5018661;28;19964;-26
2022/06/19 03:07:23;;;;;;;;;;;;;;;;;;5017758;28;19922;-26
2022/06/19 03:09:49;;;;;;;;;;;;;;;;;;5018589;28;20214;-26
2022/06/19 03:12:15;;;;;;;;;;;;;;;;;;5018121;28;19940;-26
2022/06/19 03:14:41;;;;;;;;;;;;;;;;;;5018185;28;19940;-26
2022/06/19 03:17:07;;;;;;;;;;;;;;;;;;5017873;28;20008;-26
2022/06/19 03:19:33;;;;;;;;;;;;;;;;;;5018057;28;19968;-26
2022/06/19 03:21:59;;;;;;;;;;;;;;;;;;5017918;28;20252;-26
2022/06/19 03:24:26;;;;;;;;;;;;;;;;;;5018238;28;19909;-26
2022/06/19 03:26:53;;;;;;;;;;;;;;;;;;5017543;28;19960;-26
2022/06/19 03:29:19;;;;;;;;;;;;;;;;;;5017708;28;20319;-26
2022/06/19 03:31:45;;;;;;;;;;;;;;;;;;5018107;28;19957;-26
2022/06/19 03:34:11;;;;;;;;;;;;;;;;;;5017564;28;19920;-26
2022/06/19 03:36:37;;;;;;;;;;;;;;;;;;5018016;28;20324;-26
2022/06/19 03:39:03;;;;;;;;;;;;;;;;;;5017444;28;19909;-26
2022/06/19 03:41:29;;;;;;;;;;;;;;;;;;5017697;28;19918;-26
2022/06/19 03:43:55;;;;;;;;;;;;;;;;;;5017506;28;19937;-26
2022/06/19 03:46:21;;;;;;;;;;;;;;;;;;5017800;28;20314;-26
2022/06/19 03:48:47;;;;;;;;;;;;;;;;;;5017218;28;20352;-26
2022/06/19 03:51:15;;;;;;;;;;;;;;;;;;5017449;28;19914;-26
2022/06/19 03:53:41;;;;;;;;;;;;;;;;;;5017389;28;19909;-26
2022/06/19 03:56:07;;;;;;;;;;;;;;;;;;5017681;28;19992;-26
2022/06/19 03:58:46;;;;;;;;;;;;;;;;;;5017068;28;19948;-26
2022/06/19 04:01:13;;;;;;;;;;;;;;;;;;5017583;28;19913;-26
2022/06/19 04:03:39;;;;;;;;;;;;;;;;;;5016830;28;20034;-26
2022/06/19 04:06:05;;;;;;;;;;;;;;;;;;5016840;28;20048;-26
2022/06/19 04:08:31;;;;;;;;;;;;;;;;;;5016861;28;20334;-26
2022/06/19 04:10:57;;;;;;;;;;;;;;;;;;5017295;28;19913;-26
2022/06/19 04:13:23;;;;;;;;;;;;;;;;;;5016674;28;20368;-26
2022/06/19 04:15:48;;;;;;;;;;;;;;;;;;5016754;28;19909;-26
2022/06/19 04:18:14;;;;;;;;;;;;;;;;;;5016596;28;19956;-26
2022/06/19 04:20:40;;;;;;;;;;;;;;;;;;5016669;28;20015;-26
2022/06/19 04:23:09;;;;;;;;;;;;;;;;;;5016510;28;19996;-26
2022/06/19 04:25:35;;;;;;;;;;;;;;;;;;5016813;28;20298;-26
2022/06/19 04:28:01;;;;;;;;;;;;;;;;;;5016734;28;20008;-26
2022/06/19 04:30:27;;;;;;;;;;;;;;;;;;5016525;28;20320;-26
2022/06/19 04:32:53;;;;;;;;;;;;;;;;;;5016354;28;19945;-26
2022/06/19 04:35:19;;;;;;;;;;;;;;;;;;5016425;28;20344;-26
2022/06/19 04:37:45;;;;;;;;;;;;;;;;;;5016570;28;19987;-26
2022/06/19 04:40:11;;;;;;;;;;;;;;;;;;5016861;28;19909;-26
2022/06/19 04:42:37;;;;;;;;;;;;;;;;;;5016116;28;19920;-26
2022/06/19 04:45:03;;;;;;;;;;;;;;;;;;5016483;28;19913;-26
2022/06/19 04:47:29;;;;;;;;;;;;;;;;;;5016111;28;19917;-26
2022/06/19 04:49:55;;;;;;;;;;;;;;;;;;5016128;28;19909;-26
2022/06/19 04:52:21;;;;;;;;;;;;;;;;;;5016043;28;19921;-26
2022/06/19 04:54:47;;;;;;;;;;;;;;;;;;5016088;28;19909;-26
2022/06/19 04:57:13;;;;;;;;;;;;;;;;;;5016012;28;20008;-26
2022/06/19 04:59:39;;;;;;;;;;;;;;;;;;5016268;28;19947;-26
2022/06/19 05:02:05;;;;;;;;;;;;;;;;;;5015867;28;20264;-26
2022/06/19 05:04:31;;;;;;;;;;;;;;;;;;5015923;28;19944;-26
2022/06/19 05:06:57;;;;;;;;;;;;;;;;;;5015627;28;20259;-26
2022/06/19 05:09:23;;;;;;;;;;;;;;;;;;5016079;28;19913;-26
2022/06/19 05:11:49;;;;;;;;;;;;;;;;;;5016184;28;19914;-26
2022/06/19 05:14:15;;;;;;;;;;;;;;;;;;5015752;28;20362;-26
2022/06/19 05:16:41;;;;;;;;;;;;;;;;;;5015947;28;19939;-26
2022/06/19 05:19:07;;;;;;;;;;;;;;;;;;5015662;28;19910;-26
2022/06/19 05:21:33;;;;;;;;;;;;;;;;;;5015383;28;19914;-26
2022/06/19 05:23:59;;;;;;;;;;;;;;;;;;5015567;28;20021;-26
2022/06/19 05:26:25;;;;;;;;;;;;;;;;;;5015497;28;20012;-26
2022/06/19 05:28:51;;;;;;;;;;;;;;;;;;5015530;28;20026;-26
2022/06/19 05:31:17;;;;;;;;;;;;;;;;;;5015484;28;20357;-26
2022/06/19 05:33:43;;;;;;;;;;;;;;;;;;5015401;28;19971;-26
2022/06/19 05:36:09;;;;;;;;;;;;;;;;;;5015403;28;19920;-26
2022/06/19 05:38:35;;;;;;;;;;;;;;;;;;5015590;28;19913;-26
2022/06/19 05:41:01;;;;;;;;;;;;;;;;;;5014358;28;19964;-26
2022/06/19 05:43:27;;;;;;;;;;;;;;;;;;5015264;28;19917;-26
2022/06/19 05:45:53;;;;;;;;;;;;;;;;;;5015194;28;20360;-26
2022/06/19 05:48:19;;;;;;;;;;;;;;;;;;5015332;28;19913;-26
2022/06/19 05:50:45;;;;;;;;;;;;;;;;;;5015264;28;20039;-26
2022/06/19 05:53:11;;;;;;;;;;;;;;;;;;5015413;28;19913;-26
2022/06/19 05:55:37;;;;;;;;;;;;;;;;;;5015207;28;20034;-26
2022/06/19 05:58:03;;;;;;;;;;;;;;;;;;5015193;28;19983;-26
2022/06/19 06:00:29;;;;;;;;;;;;;;;;;;5015101;28;19921;-26
2022/06/19 06:02:55;;;;;;;;;;;;;;;;;;5015291;28;19936;-26
2022/06/19 06:05:21;;;;;;;;;;;;;;;;;;5013984;28;20273;-27
2022/06/19 06:07:49;;;;;;;;;;;;;;;;;;5015590;28;19924;-26
2022/06/19 06:10:15;;;;;;;;;;;;;;;;;;5015316;28;19913;-26
2022/06/19 06:12:41;;;;;;;;;;;;;;;;;;5014990;28;20360;-26
2022/06/19 06:15:07;;;;;;;;;;;;;;;;;;5015064;28;19921;-26
2022/06/19 06:17:33;;;;;;;;;;;;;;;;;;5015048;28;19917;-26
2022/06/19 06:19:59;;;;;;;;;;;;;;;;;;5015526;28;19913;-26
2022/06/19 06:22:25;;;;;;;;;;;;;;;;;;5014930;28;20337;-26
2022/06/19 06:24:51;;;;;;;;;;;;;;;;;;5015181;28;19920;-26
2022/06/19 06:27:17;;;;;;;;;;;;;;;;;;5013941;28;19917;-26
2022/06/19 06:29:43;;;;;;;;;;;;;;;;;;5014887;28;19913;-26
2022/06/19 06:32:09;;;;;;;;;;;;;;;;;;5015090;28;19925;-26
2022/06/19 06:34:35;;;;;;;;;;;;;;;;;;5017183;28;20360;-26
2022/06/19 06:37:01;;;;;;;;;;;;;;;;;;5018526;28;19941;-26
2022/06/19 06:39:27;;;;;;;;;;;;;;;;;;5018823;28;19910;-26
2022/06/19 06:41:52;;;;;;;;;;;;;;;;;;5018453;28;19925;-26
2022/06/19 06:44:18;;;;;;;;;;;;;;;;;;5018445;28;19968;-26
2022/06/19 06:46:44;;;;;;;;;;;;;;;;;;5018371;28;20020;-26
2022/06/19 06:49:10;;;;;;;;;;;;;;;;;;5018667;28;19909;-26
2022/06/19 06:51:36;;;;;;;;;;;;;;;;;;5018364;28;19913;-26
2022/06/19 06:54:02;;;;;;;;;;;;;;;;;;5018271;28;19928;-26
2022/06/19 06:56:28;;;;;;;;;;;;;;;;;;5018543;28;19914;-26
2022/06/19 06:58:54;;;;;;;;;;;;;;;;;;5018220;28;19913;-27
2022/06/19 07:01:20;;;;;;;;;;;;;;;;;;5018454;28;19920;-26
2022/06/19 07:03:47;;;;;;;;;;;;;;;;;;5018131;28;19917;-26
2022/06/19 07:06:13;;;;;;;;;;;;;;;;;;5017816;28;19921;-26
2022/06/19 07:08:39;;;;;;;;;;;;;;;;;;5018316;28;19914;-26
2022/06/19 07:11:05;;;;;;;;;;;;;;;;;;5018059;28;19988;-26
2022/06/19 07:13:31;;;;;;;;;;;;;;;;;;5018152;28;20011;-26
2022/06/19 07:15:57;;;;;;;;;;;;;;;;;;5018201;28;19928;-26
2022/06/19 07:18:23;;;;;;;;;;;;;;;;;;5018396;28;19917;-26
2022/06/19 07:20:49;;;;;;;;;;;;;;;;;;5017841;28;19917;-26
2022/06/19 07:23:15;;;;;;;;;;;;;;;;;;5017695;28;19964;-26
2022/06/19 07:25:41;;;;;;;;;;;;;;;;;;5017683;28;20299;-26
2022/06/19 07:28:07;;;;;;;;;;;;;;;;;;5017672;28;19968;-26
2022/06/19 07:30:34;;;;;;;;;;;;;;;;;;5017639;28;19913;-26
2022/06/19 07:33:00;;;;;;;;;;;;;;;;;;5017466;28;19968;-26
2022/06/19 07:35:26;;;;;;;;;;;;;;;;;;5017821;28;19910;-26
2022/06/19 07:37:52;;;;;;;;;;;;;;;;;;5017525;28;19953;-26
2022/06/19 07:40:18;;;;;;;;;;;;;;;;;;5017495;28;19913;-26
2022/06/19 07:42:44;;;;;;;;;;;;;;;;;;5017334;28;20242;-26
2022/06/19 07:45:10;;;;;;;;;;;;;;;;;;5016914;28;19917;-26
2022/06/19 07:50:21;;;;;;;;;;;;;;;;;;5017324;28;19937;-26
2022/06/19 07:52:47;;;;;;;;;;;;;;;;;;5017354;28;19914;-26
2022/06/19 07:55:13;;;;;;;;;;;;;;;;;;5017710;28;19920;-26
2022/06/19 07:57:39;;;;;;;;;;;;;;;;;;5017099;28;19971;-26
2022/06/19 08:00:04;;;;;;;;;;;;;;;;;;5017320;28;19920;-26
2022/06/19 08:02:31;;;;;;;;;;;;;;;;;;5016957;28;19992;-26
2022/06/19 08:04:58;;;;;;;;;;;;;;;;;;5017261;28;20282;-26
2022/06/19 08:07:24;;;;;;;;;;;;;;;;;;5016594;28;19968;-26
2022/06/19 08:09:50;;;;;;;;;;;;;;;;;;5016910;28;19956;-27
2022/06/19 08:12:16;;;;;;;;;;;;;;;;;;5016754;28;20249;-26
2022/06/19 08:14:42;;;;;;;;;;;;;;;;;;5017379;28;19955;-26
2022/06/19 08:17:08;;;;;;;;;;;;;;;;;;5017327;28;19921;-27
2022/06/19 08:19:34;;;;;;;;;;;;;;;;;;5016694;28;20404;-26
2022/06/19 08:22:00;;;;;;;;;;;;;;;;;;5016582;28;19910;-26
2022/06/19 08:24:26;;;;;;;;;;;;;;;;;;5016870;28;20055;-26
2022/06/19 08:26:56;;;;;;;;;;;;;;;;;;5016496;28;19921;-27
2022/06/19 08:29:22;;;;;;;;;;;;;;;;;;5016492;28;20356;-26
2022/06/19 08:31:48;;;;;;;;;;;;;;;;;;5016702;28;19924;-26
2022/06/19 08:34:14;;;;;;;;;;;;;;;;;;5016439;28;19913;-26
2022/06/19 08:36:40;;;;;;;;;;;;;;;;;;5016330;28;20410;-26
2022/06/19 08:39:06;;;;;;;;;;;;;;;;;;5016910;28;19909;-26
2022/06/19 08:41:32;;;;;;;;;;;;;;;;;;5016298;28;19949;-26
2022/06/19 08:43:58;;;;;;;;;;;;;;;;;;5016234;28;19935;-26
2022/06/19 08:46:24;;;;;;;;;;;;;;;;;;5016982;28;19917;-26
2022/06/19 08:48:50;;;;;;;;;;;;;;;;;;5016444;28;19913;-26
2022/06/19 08:51:16;;;;;;;;;;;;;;;;;;5016396;28;20356;-27
2022/06/19 08:53:42;;;;;;;;;;;;;;;;;;5016021;28;19936;-26
2022/06/19 08:56:08;;;;;;;;;;;;;;;;;;5015752;28;19910;-26
2022/06/19 08:58:34;;;;;;;;;;;;;;;;;;5016125;28;19949;-26
2022/06/19 09:01:00;;;;;;;;;;;;;;;;;;5015949;28;20011;-26
2022/06/19 09:03:26;;;;;;;;;;;;;;;;;;5016621;28;19993;-26
2022/06/19 09:05:53;;;;;;;;;;;;;;;;;;5015705;28;19921;-26
2022/06/19 09:08:19;;;;;;;;;;;;;;;;;;5015859;28;19920;-26
2022/06/19 09:10:45;;;;;;;;;;;;;;;;;;5015822;28;19909;-26
2022/06/19 09:13:11;;;;;;;;;;;;;;;;;;5015685;28;20028;-27
2022/06/19 09:15:37;;;;;;;;;;;;;;;;;;5015796;28;19917;-26
2022/06/19 09:18:03;;;;;;;;;;;;;;;;;;5015697;28;20352;-26
2022/06/19 09:20:29;;;;;;;;;;;;;;;;;;5015650;28;19920;-26
2022/06/19 09:22:56;;;;;;;;;;;;;;;;;;5015702;28;19914;-26
2022/06/19 09:25:22;;;;;;;;;;;;;;;;;;5015854;28;19921;-26
2022/06/19 09:27:48;;;;;;;;;;;;;;;;;;5015782;28;19975;-26
2022/06/19 09:30:14;;;;;;;;;;;;;;;;;;5016093;28;19913;-26
2022/06/19 09:32:40;;;;;;;;;;;;;;;;;;5015745;28;19917;-26
2022/06/19 09:35:06;;;;;;;;;;;;;;;;;;5015726;28;20004;-26
2022/06/19 09:37:32;;;;;;;;;;;;;;;;;;5015420;28;20341;-26
2022/06/19 09:39:58;;;;;;;;;;;;;;;;;;5015391;28;19924;-26
2022/06/19 09:42:24;;;;;;;;;;;;;;;;;;5015805;28;19918;-26
2022/06/19 09:44:50;;;;;;;;;;;;;;;;;;5015619;28;19964;-26
2022/06/19 09:47:16;;;;;;;;;;;;;;;;;;5015253;28;19917;-26
2022/06/19 09:49:42;;;;;;;;;;;;;;;;;;5015546;28;19928;-26
2022/06/19 09:52:08;;;;;;;;;;;;;;;;;;5015715;28;20321;-26
2022/06/19 09:54:34;;;;;;;;;;;;;;;;;;5015257;28;19916;-26
2022/06/19 09:57:00;;;;;;;;;;;;;;;;;;5015159;28;20404;-26
2022/06/19 09:59:26;;;;;;;;;;;;;;;;;;5015159;28;19933;-26
2022/06/19 10:01:56;;;;;;;;;;;;;;;;;;5015390;28;19944;-26
2022/06/19 10:04:22;;;;;;;;;;;;;;;;;;5015382;28;19993;-26
2022/06/19 10:06:48;;;;;;;;;;;;;;;;;;5014872;28;19985;-26
2022/06/19 10:09:14;;;;;;;;;;;;;;;;;;5018341;28;19914;-26
2022/06/19 10:11:40;;;;;;;;;;;;;;;;;;5019349;28;19923;-26
2022/06/19 10:14:06;;;;;;;;;;;;;;;;;;5019016;28;20380;-26
2022/06/19 10:16:32;;;;;;;;;;;;;;;;;;5019523;28;20135;-26
2022/06/19 10:18:59;;;;;;;;;;;;;;;;;;5019015;28;19931;-26
2022/06/19 10:24:09;;;;;;;;;;;;;;;;;;5018905;28;20013;-26
2022/06/19 10:26:35;;;;;;;;;;;;;;;;;;5018741;28;20444;-26
2022/06/19 10:29:01;;;;;;;;;;;;;;;;;;5019881;28;19920;-26
2022/06/19 10:31:27;;;;;;;;;;;;;;;;;;5018767;28;20262;-26
2022/06/19 10:33:53;;;;;;;;;;;;;;;;;;5018898;28;19977;-26
2022/06/19 10:36:19;;;;;;;;;;;;;;;;;;5018936;28;20292;-27
2022/06/19 10:38:45;;;;;;;;;;;;;;;;;;5018595;28;19968;-26
2022/06/19 10:42:00;;;;;;;;;;;;;;;;;;5018571;28;19976;-26
2022/06/19 10:43:57;;;;;;;;;;;;;;;;;;5018360;28;19914;-26
2022/06/19 10:46:23;;;;;;;;;;;;;;;;;;5018388;28;19918;-26
2022/06/19 10:48:49;;;;;;;;;;;;;;;;;;5018957;28;20329;-26
2022/06/19 10:51:15;;;;;;;;;;;;;;;;;;5018467;28;19914;-26
2022/06/19 10:53:41;;;;;;;;;;;;;;;;;;5018239;28;20261;-26
2022/06/19 10:56:07;;;;;;;;;;;;;;;;;;5018358;28;19909;-26
2022/06/19 10:58:33;;;;;;;;;;;;;;;;;;5018476;28;19913;-26
2022/06/19 11:00:59;;;;;;;;;;;;;;;;;;5018429;28;20268;-26
2022/06/19 11:06:09;;;;;;;;;;;;;;;;;;5017910;28;19933;-26
2022/06/19 11:08:36;;;;;;;;;;;;;;;;;;5017997;28;19921;-26
2022/06/19 11:11:02;;;;;;;;;;;;;;;;;;5018259;28;20404;-26
2022/06/19 11:13:27;;;;;;;;;;;;;;;;;;5017900;28;19999;-26
2022/06/19 11:15:53;;;;;;;;;;;;;;;;;;5018758;28;19910;-26
2022/06/19 11:18:20;;;;;;;;;;;;;;;;;;5017859;28;19924;-26
2022/06/19 11:20:46;;;;;;;;;;;;;;;;;;5017035;28;19959;-26
2022/06/19 11:23:12;;;;;;;;;;;;;;;;;;5017686;28;19972;-26
2022/06/19 11:25:38;;;;;;;;;;;;;;;;;;5017993;28;20003;-26
2022/06/19 11:28:04;;;;;;;;;;;;;;;;;;5018155;28;20280;-26
2022/06/19 11:30:30;;;;;;;;;;;;;;;;;;5017839;28;19964;-26
2022/06/19 11:32:56;;;;;;;;;;;;;;;;;;5017542;28;19931;-26
2022/06/19 11:35:22;;;;;;;;;;;;;;;;;;5018103;28;19910;-26
2022/06/19 11:37:48;;;;;;;;;;;;;;;;;;5017738;28;20230;-26
2022/06/19 11:40:14;;;;;;;;;;;;;;;;;;5017719;28;20008;-26
2022/06/19 11:42:40;;;;;;;;;;;;;;;;;;5017357;28;19909;-26
2022/06/19 11:45:06;;;;;;;;;;;;;;;;;;5017652;28;19914;-26
2022/06/19 11:47:32;;;;;;;;;;;;;;;;;;5017257;28;19917;-26
2022/06/19 11:49:58;;;;;;;;;;;;;;;;;;5017575;28;20230;-26
2022/06/19 11:52:24;;;;;;;;;;;;;;;;;;5017491;28;19992;-26
2022/06/19 11:54:51;;;;;;;;;;;;;;;;;;5017465;28;19917;-26
2022/06/19 11:57:17;;;;;;;;;;;;;;;;;;5017187;28;19913;-26
2022/06/19 11:59:46;;;;;;;;;;;;;;;;;;5017661;28;19935;-26
2022/06/19 12:02:12;;;;;;;;;;;;;;;;;;5017520;28;20411;-26
2022/06/19 12:04:40;;;;;;;;;;;;;;;;;;5017017;28;19914;-26
2022/06/19 12:07:08;;;;;;;;;;;;;;;;;;5016794;28;19929;-26
2022/06/19 12:09:34;;;;;;;;;;;;;;;;;;5016018;28;19941;-26
2022/06/19 12:12:00;;;;;;;;;;;;;;;;;;5017064;28;19957;-26
2022/06/19 12:14:26;;;;;;;;;;;;;;;;;;5017567;28;19975;-26
2022/06/19 12:16:52;;;;;;;;;;;;;;;;;;5016762;28;19921;-26
2022/06/19 12:19:18;;;;;;;;;;;;;;;;;;5016738;28;19924;-26
2022/06/19 12:21:44;;;;;;;;;;;;;;;;;;5017262;28;19914;-26
2022/06/19 12:24:10;;;;;;;;;;;;;;;;;;5016589;28;20264;-26
2022/06/19 12:26:36;;;;;;;;;;;;;;;;;;5016776;28;19917;-26
2022/06/19 12:29:02;;;;;;;;;;;;;;;;;;5015639;28;19924;-26
2022/06/19 12:31:28;;;;;;;;;;;;;;;;;;5017303;28;19940;-26
2022/06/19 12:33:54;;;;;;;;;;;;;;;;;;5016438;28;19910;-26
2022/06/19 12:36:20;;;;;;;;;;;;;;;;;;5016440;28;20038;-26
2022/06/19 12:38:46;;;;;;;;;;;;;;;;;;5016438;28;19910;-26
2022/06/19 12:41:12;;;;;;;;;;;;;;;;;;5016575;28;19940;-26
2022/06/19 12:43:38;;;;;;;;;;;;;;;;;;5016457;28;19914;-26
2022/06/19 12:46:04;;;;;;;;;;;;;;;;;;5016164;28;19936;-26
2022/06/19 12:48:30;;;;;;;;;;;;;;;;;;5016063;28;19913;-26
2022/06/19 12:50:56;;;;;;;;;;;;;;;;;;5016189;28;19909;-27
2022/06/19 12:53:23;;;;;;;;;;;;;;;;;;5016271;28;19928;-26
2022/06/19 12:55:49;;;;;;;;;;;;;;;;;;5016043;28;20000;-26
2022/06/19 12:58:15;;;;;;;;;;;;;;;;;;5016131;28;19909;-26
2022/06/19 13:00:41;;;;;;;;;;;;;;;;;;5016539;28;19928;-26
2022/06/19 13:03:07;;;;;;;;;;;;;;;;;;5015890;28;19947;-26
2022/06/19 13:05:33;;;;;;;;;;;;;;;;;;5015907;28;19953;-27
2022/06/19 13:08:00;;;;;;;;;;;;;;;;;;5016428;28;20337;-26
2022/06/19 13:10:26;;;;;;;;;;;;;;;;;;5015743;28;20341;-26
2022/06/19 13:12:52;;;;;;;;;;;;;;;;;;5015759;28;19913;-26
2022/06/19 13:15:18;;;;;;;;;;;;;;;;;;5016034;28;20222;-26
2022/06/19 13:17:43;;;;;;;;;;;;;;;;;;5015997;28;20264;-26
2022/06/19 13:20:09;;;;;;;;;;;;;;;;;;5015706;28;19918;-26
2022/06/19 13:22:35;;;;;;;;;;;;;;;;;;5016160;28;20248;-26
2022/06/19 13:25:01;;;;;;;;;;;;;;;;;;5016168;28;19910;-26
2022/06/19 13:27:27;;;;;;;;;;;;;;;;;;5015739;28;19917;-26
2022/06/19 13:29:53;;;;;;;;;;;;;;;;;;5015804;28;19964;-26
2022/06/19 13:32:19;;;;;;;;;;;;;;;;;;5015515;28;20400;-26
2022/06/19 13:34:45;;;;;;;;;;;;;;;;;;5015740;28;20004;-26
2022/06/19 13:37:11;;;;;;;;;;;;;;;;;;5015426;28;20349;-26
2022/06/19 13:39:37;;;;;;;;;;;;;;;;;;5015410;28;19959;-26
2022/06/19 13:42:03;;;;;;;;;;;;;;;;;;5015118;28;19952;-26
2022/06/19 13:44:29;;;;;;;;;;;;;;;;;;5015114;28;19949;-26
2022/06/19 13:46:55;;;;;;;;;;;;;;;;;;5015514;28;19953;-26
2022/06/19 13:49:21;;;;;;;;;;;;;;;;;;5015861;28;20000;-26
2022/06/19 13:51:47;;;;;;;;;;;;;;;;;;5015460;28;19913;-26
2022/06/19 13:54:13;;;;;;;;;;;;;;;;;;5015276;28;20305;-26
2022/06/19 13:56:39;;;;;;;;;;;;;;;;;;5015212;28;20268;-26
2022/06/19 13:59:05;;;;;;;;;;;;;;;;;;5015454;28;19932;-26
2022/06/19 14:01:31;;;;;;;;;;;;;;;;;;5015117;28;19914;-26
2022/06/19 14:06:41;;;;;;;;;;;;;;;;;;5015013;28;19932;-26
2022/06/19 14:09:07;;;;;;;;;;;;;;;;;;5015132;28;19913;-26
2022/06/19 14:14:18;;;;;;;;;;;;;;;;;;5015210;28;19921;-26
2022/06/19 14:16:44;;;;;;;;;;;;;;;;;;5015277;28;19967;-26
2022/06/19 14:19:10;;;;;;;;;;;;;;;;;;5015588;28;20236;-26
2022/06/19 14:21:36;;;;;;;;;;;;;;;;;;5014969;28;19913;-26
2022/06/19 14:24:02;;;;;;;;;;;;;;;;;;5014947;28;20371;-26
2022/06/19 14:26:28;;;;;;;;;;;;;;;;;;5015177;28;19968;-26
2022/06/19 14:28:54;;;;;;;;;;;;;;;;;;5014899;28;20276;-27
2022/06/19 14:31:20;;;;;;;;;;;;;;;;;;5015148;28;20256;-27
2022/06/19 14:33:48;;;;;;;;;;;;;;;;;;5014906;28;19910;-26
2022/06/19 14:36:14;;;;;;;;;;;;;;;;;;5015176;28;20008;-26
2022/06/19 14:38:40;;;;;;;;;;;;;;;;;;5014864;28;20383;-26
2022/06/19 14:41:06;;;;;;;;;;;;;;;;;;5014766;28;19919;-26
2022/06/19 14:43:32;;;;;;;;;;;;;;;;;;5013823;28;19917;-27
2022/06/19 14:45:58;;;;;;;;;;;;;;;;;;5014756;28;19925;-26
2022/06/19 14:48:24;;;;;;;;;;;;;;;;;;5015317;28;19956;-26
2022/06/19 14:50:50;;;;;;;;;;;;;;;;;;5015296;28;19984;-26
2022/06/19 14:53:16;;;;;;;;;;;;;;;;;;5014665;28;19924;-26
2022/06/19 14:55:42;;;;;;;;;;;;;;;;;;5016844;28;19913;-26
2022/06/19 14:58:08;;;;;;;;;;;;;;;;;;5018256;28;19972;-26
2022/06/19 15:00:34;;;;;;;;;;;;;;;;;;5018548;28;19909;-26
2022/06/19 15:03:00;;;;;;;;;;;;;;;;;;5018426;28;19921;-26
2022/06/19 15:05:26;;;;;;;;;;;;;;;;;;5017968;28;19913;-26
2022/06/19 15:07:52;;;;;;;;;;;;;;;;;;5018314;28;19925;-26
2022/06/19 15:10:18;;;;;;;;;;;;;;;;;;5018288;28;19996;-26
2022/06/19 15:12:44;;;;;;;;;;;;;;;;;;5017930;28;19975;-27
2022/06/19 15:15:10;;;;;;;;;;;;;;;;;;5018273;28;19917;-26
2022/06/19 15:17:36;;;;;;;;;;;;;;;;;;5018149;28;19960;-26
2022/06/19 15:20:02;;;;;;;;;;;;;;;;;;5018198;28;19925;-26
2022/06/19 15:22:28;;;;;;;;;;;;;;;;;;5017830;28;19914;-26
2022/06/19 15:24:54;;;;;;;;;;;;;;;;;;5017767;28;19914;-26
2022/06/19 15:27:20;;;;;;;;;;;;;;;;;;5017889;28;19920;-26
2022/06/19 15:29:46;;;;;;;;;;;;;;;;;;5017687;28;19996;-26
2022/06/19 15:32:14;;;;;;;;;;;;;;;;;;5017585;28;19917;-27
2022/06/19 15:34:40;;;;;;;;;;;;;;;;;;5017581;28;19914;-26
2022/06/19 15:37:06;;;;;;;;;;;;;;;;;;5018097;28;19913;-26
2022/06/19 15:39:32;;;;;;;;;;;;;;;;;;5018059;28;20297;-26
2022/06/19 15:41:58;;;;;;;;;;;;;;;;;;5017675;28;19913;-26
2022/06/19 15:44:24;;;;;;;;;;;;;;;;;;5017705;28;19910;-26
2022/06/19 15:46:50;;;;;;;;;;;;;;;;;;5017561;28;19922;-26
2022/06/19 15:49:17;;;;;;;;;;;;;;;;;;5017621;28;19959;-26
2022/06/19 15:51:43;;;;;;;;;;;;;;;;;;5017193;28;19914;-26
2022/06/19 15:54:09;;;;;;;;;;;;;;;;;;5017126;28;19921;-26
2022/06/19 15:56:35;;;;;;;;;;;;;;;;;;5017443;28;19924;-27
2022/06/19 15:59:01;;;;;;;;;;;;;;;;;;5017136;28;19972;-26
2022/06/19 16:01:27;;;;;;;;;;;;;;;;;;5017102;28;20300;-26
2022/06/19 16:03:53;;;;;;;;;;;;;;;;;;5017269;28;19910;-26
2022/06/19 16:06:19;;;;;;;;;;;;;;;;;;5016627;28;19922;-26
2022/06/19 16:08:45;;;;;;;;;;;;;;;;;;5017222;28;20212;-26
2022/06/19 16:11:11;;;;;;;;;;;;;;;;;;5017201;28;19957;-27
2022/06/19 16:13:37;;;;;;;;;;;;;;;;;;5016836;28;19924;-26
2022/06/19 16:16:03;;;;;;;;;;;;;;;;;;5016817;28;19913;-27
2022/06/19 16:18:29;;;;;;;;;;;;;;;;;;5017594;28;19916;-26
2022/06/19 16:20:55;;;;;;;;;;;;;;;;;;5016978;28;19913;-26
2022/06/19 16:23:21;;;;;;;;;;;;;;;;;;5016860;28;19921;-26
2022/06/19 16:25:48;;;;;;;;;;;;;;;;;;5016916;28;19909;-26
2022/06/19 16:28:14;;;;;;;;;;;;;;;;;;5016535;28;20344;-26
2022/06/19 16:30:40;;;;;;;;;;;;;;;;;;5016538;28;19953;-26
2022/06/19 16:33:06;;;;;;;;;;;;;;;;;;5016501;28;19920;-26
2022/06/19 16:44:08;;;;;;;;;;;;;;;;;;5016293;28;20003;-26
2022/06/19 16:46:34;;;;;;;;;;;;;;;;;;5016241;28;19976;-26
2022/06/19 16:49:00;;;;;;;;;;;;;;;;;;5016720;28;19913;-27
2022/06/19 16:51:26;;;;;;;;;;;;;;;;;;5016207;28;19917;-26
2022/06/19 16:53:52;;;;;;;;;;;;;;;;;;5016090;28;19967;-26
2022/06/19 16:56:18;;;;;;;;;;;;;;;;;;5016641;28;19913;-26
2022/06/19 16:58:44;;;;;;;;;;;;;;;;;;5016597;28;19917;-26
2022/06/19 17:01:12;;;;;;;;;;;;;;;;;;5016274;28;19913;-26
2022/06/19 17:03:38;;;;;;;;;;;;;;;;;;5016191;28;19918;-26